EETNEVRA

Guest
Details From EETN - TALLINN
To EVRA - Riga Intl
Flight Number -
Tags decoded
Created
Modified
Stats Distance 152 nm / 281 km
Max Altitude 0 ft / 0 m
Waypoints 2
Social Downloads 0
Likes 0
Share VATSIM

Download

Looking for another format? Having issues loading an existing format? Contact us
Advertisement - Login to hide

Notes

Requested: EETN 59 59 58 56 56 56 56 56 EVRA Unmatched points: 59 59 58 56 56 56 56 56

Route

EETN EVRA

ID Type Via Altitude Latitude Longitude Leg Dist Tot Dist Heading (true) Name
O EETN APT - 0 ft / 0 m 59.41326˚ 24.83280˚ - 0 nm - TALLINN
O EVRA APT - 0 ft / 0 m 56.92366˚ 23.97119˚ 151 nm 151 nm 191° / 190° Riga Intl

Altitude Profile

Advertisement - Login to hide

EETN

Details ICAO EETN (TLL)
Name TALLINN
Region Estonia
Timezone Europe/Tallinn (UTC+2.0)
Stats Elevation 131 ft / 40 m (AMSL)
Location 59.413257° 24.832803°
Runways 1
Magnetic Variation 8.635° E

METAR

EETN 122220Z 24012KT 9999 SCT012 OVC022 03/01 Q0986 R08/290295

Decode

TAF

TAF TAF EETN 121714Z 1218/1318 19012KT 9999 BKN006 BKN013 TEMPO 1218/1306 2000 RASN BKN003 BKN010 BECMG 1222/1224 29015G25KT BECMG 1307/1309 SCT006 BKN015 BECMG 1310/1312 20012KT PROB40 TEMPO 1313/1318 20015G25KT 2000 SHSNRA BKN005 SCT013CB

Decode

Departure Runways

ID Width Length Bearing (true) Bearing (mag) Surface Threshold Offset Overrun Length
08 148 ft / 45 m 10,023 ft / 3,055 m 90.24° 81.61° Asphalt 820 ft / 250 m 0 ft / 0 m
26 148 ft / 45 m 10,023 ft / 3,055 m 270.28° 261.65° Asphalt 0 ft / 0 m 184 ft / 56 m

EVRA

Details ICAO EVRA (RIX)
Name Riga Intl
Region Latvia
Timezone Europe/Riga (UTC+2.0)
Stats Elevation 34 ft / 10 m (AMSL)
Location 56.923662° 23.971193°
Runways 1
Magnetic Variation 7.655° E

METAR

EVRA 122220Z 21020KT 9999 SCT017 BKN021 04/02 Q0993 R18/290195 NOSIG

Decode

TAF

TAF TAF EVRA 122014Z 1221/1321 19015KT 9999 OVC015 TEMPO 1221/1224 21017G30KT BKN005 FM130000 24012KT 8000 OVC010 TEMPO 1300/1304 25015G30KT 3000 -SHRA BKN005 SCT010CB BECMG 1306/1308 19010KT BKN015

Decode

Destination Runways

ID Width Length Bearing (true) Bearing (mag) Surface Threshold Offset Overrun Length
18 148 ft / 45 m 8,358 ft / 2,548 m 185.15° 177.49° Asphalt 0 ft / 0 m 170 ft / 52 m
36 148 ft / 45 m 8,358 ft / 2,548 m 5.14° 357.48° Asphalt 0 ft / 0 m 170 ft / 52 m

Approach Navaids

Runway Type Ident Frequency Range Bearing (true) Bearing (mag) Slope Elevation
18 Localiser IAO 110.30 MHz 18 nm / 33 km 185.14° 177.48° - 34 ft / 10 m (AMSL)
18 Glidescope IAO 110.30 MHz 10 nm / 19 km 185.15° 177.49° 3.00° 34 ft / 10 m (AMSL)
18 DME IAO 110.30 MHz 18 nm / 33 km - - - 0 ft / 0 m (AMSL)
36 Localiser IRP 110.30 MHz 18 nm / 33 km 5.14° 357.49° - 34 ft / 10 m (AMSL)
36 Glidescope IRP 110.30 MHz 10 nm / 19 km 5.14° 357.49° 3.00° 34 ft / 10 m (AMSL)
36 DME IRP 110.30 MHz 18 nm / 33 km - - - 0 ft / 0 m (AMSL)

Popular Alternatives